sensor_id;sensor_type;location;lat;lon;timestamp;pressure;altitude;pressure_sealevel;temperature;humidity
1480;BME280;732;51.698;4.886;2023-02-18T00:01:43;102439.78;;;8.23;100.00
1480;BME280;732;51.698;4.886;2023-02-18T00:04:13;102410.38;;;8.08;100.00
1480;BME280;732;51.698;4.886;2023-02-18T00:06:41;102392.84;;;8.06;100.00
1480;BME280;732;51.698;4.886;2023-02-18T00:09:10;102410.81;;;8.19;100.00
1480;BME280;732;51.698;4.886;2023-02-18T00:11:39;102396.94;;;8.23;100.00
1480;BME280;732;51.698;4.886;2023-02-18T00:14:11;102423.63;;;8.35;100.00
1480;BME280;732;51.698;4.886;2023-02-18T00:16:42;102397.34;;;8.10;100.00
1480;BME280;732;51.698;4.886;2023-02-18T00:19:15;102356.66;;;7.96;100.00
1480;BME280;732;51.698;4.886;2023-02-18T00:21:45;102391.66;;;7.98;100.00
1480;BME280;732;51.698;4.886;2023-02-18T00:24:15;102404.63;;;7.95;100.00
1480;BME280;732;51.698;4.886;2023-02-18T00:26:44;102391.03;;;8.05;100.00
1480;BME280;732;51.698;4.886;2023-02-18T00:29:13;102396.41;;;8.08;100.00
1480;BME280;732;51.698;4.886;2023-02-18T00:31:42;102369.13;;;8.03;100.00
1480;BME280;732;51.698;4.886;2023-02-18T00:34:13;102402.03;;;8.18;100.00
1480;BME280;732;51.698;4.886;2023-02-18T00:36:42;102379.28;;;8.17;100.00
1480;BME280;732;51.698;4.886;2023-02-18T00:39:11;102377.31;;;8.12;100.00
1480;BME280;732;51.698;4.886;2023-02-18T00:41:40;102399.03;;;8.31;100.00
1480;BME280;732;51.698;4.886;2023-02-18T00:44:10;102362.59;;;8.15;100.00
1480;BME280;732;51.698;4.886;2023-02-18T00:46:40;102340.69;;;7.90;100.00
1480;BME280;732;51.698;4.886;2023-02-18T00:49:09;102374.59;;;8.09;100.00
1480;BME280;732;51.698;4.886;2023-02-18T00:51:39;102393.41;;;8.21;100.00
1480;BME280;732;51.698;4.886;2023-02-18T00:54:08;102367.78;;;8.14;100.00
1480;BME280;732;51.698;4.886;2023-02-18T00:56:37;102388.50;;;8.30;100.00
1480;BME280;732;51.698;4.886;2023-02-18T00:59:06;102363.00;;;8.26;100.00
1480;BME280;732;51.698;4.886;2023-02-18T01:01:34;102375.88;;;8.43;100.00
1480;BME280;732;51.698;4.886;2023-02-18T01:04:03;102358.81;;;8.31;100.00
1480;BME280;732;51.698;4.886;2023-02-18T01:06:32;102323.03;;;8.08;100.00
1480;BME280;732;51.698;4.886;2023-02-18T01:09:04;102355.53;;;8.13;100.00
1480;BME280;732;51.698;4.886;2023-02-18T01:11:33;102362.28;;;8.30;100.00
1480;BME280;732;51.698;4.886;2023-02-18T01:14:01;102367.34;;;8.25;100.00
1480;BME280;732;51.698;4.886;2023-02-18T01:16:30;102366.03;;;8.38;100.00
1480;BME280;732;51.698;4.886;2023-02-18T01:18:58;102358.84;;;8.32;100.00
1480;BME280;732;51.698;4.886;2023-02-18T01:21:27;102365.94;;;8.35;100.00
1480;BME280;732;51.698;4.886;2023-02-18T01:23:57;102362.59;;;8.39;100.00
1480;BME280;732;51.698;4.886;2023-02-18T01:26:26;102372.63;;;8.27;100.00
1480;BME280;732;51.698;4.886;2023-02-18T01:28:55;102358.97;;;8.12;100.00
1480;BME280;732;51.698;4.886;2023-02-18T01:31:23;102362.22;;;8.28;100.00
1480;BME280;732;51.698;4.886;2023-02-18T01:33:52;102325.13;;;8.18;100.00
1480;BME280;732;51.698;4.886;2023-02-18T01:36:23;102352.19;;;8.42;100.00
1480;BME280;732;51.698;4.886;2023-02-18T01:38:55;102336.84;;;8.27;100.00
1480;BME280;732;51.698;4.886;2023-02-18T01:41:23;102353.69;;;8.34;100.00
1480;BME280;732;51.698;4.886;2023-02-18T01:44:16;102331.81;;;8.10;100.00
1480;BME280;732;51.698;4.886;2023-02-18T01:46:46;102344.97;;;8.35;100.00
1480;BME280;732;51.698;4.886;2023-02-18T01:49:18;102319.16;;;8.22;100.00
1480;BME280;732;51.698;4.886;2023-02-18T01:51:50;102332.03;;;8.39;100.00
1480;BME280;732;51.698;4.886;2023-02-18T01:54:24;102345.53;;;8.52;100.00
1480;BME280;732;51.698;4.886;2023-02-18T01:56:59;102349.53;;;8.66;100.00
1480;BME280;732;51.698;4.886;2023-02-18T01:59:36;102344.25;;;8.64;100.00
1480;BME280;732;51.698;4.886;2023-02-18T02:02:07;102349.16;;;8.55;100.00
1480;BME280;732;51.698;4.886;2023-02-18T02:04:38;102326.63;;;8.60;100.00
1480;BME280;732;51.698;4.886;2023-02-18T02:07:08;102329.03;;;8.54;100.00
1480;BME280;732;51.698;4.886;2023-02-18T02:09:39;102327.88;;;8.46;100.00
1480;BME280;732;51.698;4.886;2023-02-18T02:12:38;102328.88;;;8.49;100.00
1480;BME280;732;51.698;4.886;2023-02-18T02:15:29;102317.59;;;8.52;100.00
1480;BME280;732;51.698;4.886;2023-02-18T02:18:17;102320.69;;;8.66;100.00
1480;BME280;732;51.698;4.886;2023-02-18T02:21:27;102307.28;;;8.57;100.00
1480;BME280;732;51.698;4.886;2023-02-18T02:31:08;102279.38;;;8.33;100.00
1480;BME280;732;51.698;4.886;2023-02-18T02:34:24;102295.16;;;8.35;100.00
1480;BME280;732;51.698;4.886;2023-02-18T02:37:05;102277.53;;;8.31;100.00
1480;BME280;732;51.698;4.886;2023-02-18T02:39:46;102270.56;;;8.31;100.00
1480;BME280;732;51.698;4.886;2023-02-18T02:42:28;102284.66;;;8.35;100.00
1480;BME280;732;51.698;4.886;2023-02-18T02:45:09;102265.75;;;8.18;100.00
1480;BME280;732;51.698;4.886;2023-02-18T02:47:44;102284.03;;;8.42;100.00
1480;BME280;732;51.698;4.886;2023-02-18T02:50:21;102276.38;;;8.23;100.00
1480;BME280;732;51.698;4.886;2023-02-18T02:52:58;102270.78;;;8.37;100.00
1480;BME280;732;51.698;4.886;2023-02-18T02:55:27;102233.44;;;8.19;100.00
1480;BME280;732;51.698;4.886;2023-02-18T02:57:56;102261.25;;;8.39;100.00
1480;BME280;732;51.698;4.886;2023-02-18T03:00:37;102253.38;;;8.39;100.00
1480;BME280;732;51.698;4.886;2023-02-18T03:03:26;102245.66;;;8.44;100.00
1480;BME280;732;51.698;4.886;2023-02-18T03:06:51;102207.56;;;8.03;100.00
1480;BME280;732;51.698;4.886;2023-02-18T03:09:38;102220.47;;;8.22;100.00
1480;BME280;732;51.698;4.886;2023-02-18T03:12:17;102218.41;;;8.14;100.00
1480;BME280;732;51.698;4.886;2023-02-18T03:14:56;102196.75;;;7.93;100.00
1480;BME280;732;51.698;4.886;2023-02-18T03:17:30;102198.03;;;8.05;100.00
1480;BME280;732;51.698;4.886;2023-02-18T03:20:12;102183.09;;;8.03;100.00
1480;BME280;732;51.698;4.886;2023-02-18T03:22:46;102195.50;;;8.08;100.00
1480;BME280;732;51.698;4.886;2023-02-18T03:25:18;102214.97;;;8.15;100.00
1480;BME280;732;51.698;4.886;2023-02-18T03:27:51;102190.66;;;8.19;100.00
1480;BME280;732;51.698;4.886;2023-02-18T03:30:25;102200.22;;;8.18;100.00
1480;BME280;732;51.698;4.886;2023-02-18T03:32:59;102177.38;;;8.14;100.00
1480;BME280;732;51.698;4.886;2023-02-18T03:35:31;102168.50;;;8.09;100.00
1480;BME280;732;51.698;4.886;2023-02-18T03:38:08;102204.13;;;8.31;100.00
1480;BME280;732;51.698;4.886;2023-02-18T03:40:39;102189.59;;;8.14;100.00
1480;BME280;732;51.698;4.886;2023-02-18T03:43:08;102177.03;;;8.04;100.00
1480;BME280;732;51.698;4.886;2023-02-18T03:45:37;102146.13;;;7.69;100.00
1480;BME280;732;51.698;4.886;2023-02-18T03:48:07;102163.28;;;7.86;100.00
1480;BME280;732;51.698;4.886;2023-02-18T03:50:35;102188.06;;;7.95;100.00
1480;BME280;732;51.698;4.886;2023-02-18T03:53:05;102181.84;;;7.92;100.00
1480;BME280;732;51.698;4.886;2023-02-18T03:55:36;102173.44;;;8.00;100.00
1480;BME280;732;51.698;4.886;2023-02-18T03:58:04;102162.88;;;7.99;100.00
1480;BME280;732;51.698;4.886;2023-02-18T04:00:33;102134.53;;;7.87;100.00
1480;BME280;732;51.698;4.886;2023-02-18T04:03:01;102163.34;;;7.87;100.00
1480;BME280;732;51.698;4.886;2023-02-18T04:05:30;102172.09;;;7.88;100.00
1480;BME280;732;51.698;4.886;2023-02-18T04:07:58;102172.22;;;7.91;100.00
1480;BME280;732;51.698;4.886;2023-02-18T04:10:28;102143.56;;;7.70;100.00
1480;BME280;732;51.698;4.886;2023-02-18T04:12:56;102157.84;;;7.80;100.00
1480;BME280;732;51.698;4.886;2023-02-18T04:15:25;102155.88;;;7.73;100.00
1480;BME280;732;51.698;4.886;2023-02-18T04:17:54;102148.38;;;7.83;100.00
1480;BME280;732;51.698;4.886;2023-02-18T04:20:22;102147.59;;;7.86;100.00
1480;BME280;732;51.698;4.886;2023-02-18T04:22:51;102140.09;;;7.71;100.00
1480;BME280;732;51.698;4.886;2023-02-18T04:25:19;102149.94;;;7.78;100.00
1480;BME280;732;51.698;4.886;2023-02-18T04:27:49;102154.34;;;7.79;100.00
1480;BME280;732;51.698;4.886;2023-02-18T04:30:18;102155.78;;;7.70;100.00
1480;BME280;732;51.698;4.886;2023-02-18T04:32:46;102114.28;;;7.33;100.00
1480;BME280;732;51.698;4.886;2023-02-18T04:35:15;102104.28;;;7.46;100.00
1480;BME280;732;51.698;4.886;2023-02-18T04:37:44;102150.41;;;7.67;100.00
1480;BME280;732;51.698;4.886;2023-02-18T04:40:13;102156.59;;;7.69;100.00
1480;BME280;732;51.698;4.886;2023-02-18T04:42:41;102105.75;;;7.38;100.00
1480;BME280;732;51.698;4.886;2023-02-18T04:45:11;102159.56;;;7.78;100.00
1480;BME280;732;51.698;4.886;2023-02-18T04:47:40;102147.38;;;7.80;100.00
1480;BME280;732;51.698;4.886;2023-02-18T04:50:09;102113.63;;;7.64;100.00
1480;BME280;732;51.698;4.886;2023-02-18T04:52:38;102129.41;;;7.65;100.00
1480;BME280;732;51.698;4.886;2023-02-18T04:55:08;102115.88;;;7.53;100.00
1480;BME280;732;51.698;4.886;2023-02-18T04:57:37;102130.00;;;7.58;100.00
1480;BME280;732;51.698;4.886;2023-02-18T05:00:07;102135.28;;;7.60;100.00
1480;BME280;732;51.698;4.886;2023-02-18T05:02:38;102135.34;;;7.61;100.00
1480;BME280;732;51.698;4.886;2023-02-18T05:05:07;102137.00;;;7.59;100.00
1480;BME280;732;51.698;4.886;2023-02-18T05:07:36;102086.50;;;7.36;100.00
1480;BME280;732;51.698;4.886;2023-02-18T05:10:06;102121.91;;;7.50;100.00
1480;BME280;732;51.698;4.886;2023-02-18T05:12:35;102121.13;;;7.53;100.00
1480;BME280;732;51.698;4.886;2023-02-18T05:15:07;102118.63;;;7.57;100.00
1480;BME280;732;51.698;4.886;2023-02-18T05:17:38;102105.97;;;7.44;100.00
1480;BME280;732;51.698;4.886;2023-02-18T05:20:08;102116.91;;;7.58;100.00
1480;BME280;732;51.698;4.886;2023-02-18T05:22:36;102122.88;;;7.54;100.00
1480;BME280;732;51.698;4.886;2023-02-18T05:25:06;102117.69;;;7.55;100.00
1480;BME280;732;51.698;4.886;2023-02-18T05:27:35;102117.78;;;7.57;100.00
1480;BME280;732;51.698;4.886;2023-02-18T05:30:05;102123.81;;;7.56;100.00
1480;BME280;732;51.698;4.886;2023-02-18T05:32:34;102116.88;;;7.57;100.00
1480;BME280;732;51.698;4.886;2023-02-18T05:35:06;102098.75;;;7.37;100.00
1480;BME280;732;51.698;4.886;2023-02-18T05:37:36;102104.03;;;7.39;100.00
1480;BME280;732;51.698;4.886;2023-02-18T05:40:06;102112.19;;;7.48;100.00
1480;BME280;732;51.698;4.886;2023-02-18T05:42:35;102099.84;;;7.44;100.00
1480;BME280;732;51.698;4.886;2023-02-18T05:45:04;102062.47;;;7.23;100.00
1480;BME280;732;51.698;4.886;2023-02-18T05:47:33;102040.06;;;7.06;100.00
1480;BME280;732;51.698;4.886;2023-02-18T05:50:02;102088.69;;;7.24;100.00
1480;BME280;732;51.698;4.886;2023-02-18T05:52:32;102083.28;;;7.20;100.00
1480;BME280;732;51.698;4.886;2023-02-18T05:55:01;102073.53;;;7.16;100.00
1480;BME280;732;51.698;4.886;2023-02-18T05:57:30;102080.78;;;7.23;100.00
1480;BME280;732;51.698;4.886;2023-02-18T05:59:58;102084.13;;;7.19;100.00
1480;BME280;732;51.698;4.886;2023-02-18T06:02:27;102071.81;;;7.16;100.00
1480;BME280;732;51.698;4.886;2023-02-18T06:04:55;102066.75;;;7.21;100.00
1480;BME280;732;51.698;4.886;2023-02-18T06:07:24;102064.97;;;7.20;100.00
1480;BME280;732;51.698;4.886;2023-02-18T06:09:53;102072.25;;;7.28;100.00
1480;BME280;732;51.698;4.886;2023-02-18T06:12:22;102046.38;;;7.12;100.00
1480;BME280;732;51.698;4.886;2023-02-18T06:14:50;102036.44;;;7.02;100.00
1480;BME280;732;51.698;4.886;2023-02-18T06:17:19;102049.06;;;7.14;100.00
1480;BME280;732;51.698;4.886;2023-02-18T06:19:48;102057.38;;;7.02;100.00
1480;BME280;732;51.698;4.886;2023-02-18T06:22:17;102081.88;;;7.04;100.00
1480;BME280;732;51.698;4.886;2023-02-18T06:24:45;102055.16;;;6.89;100.00
1480;BME280;732;51.698;4.886;2023-02-18T06:27:15;102045.63;;;6.91;100.00
1480;BME280;732;51.698;4.886;2023-02-18T06:29:43;102075.72;;;7.04;100.00
1480;BME280;732;51.698;4.886;2023-02-18T06:32:12;102076.69;;;7.06;100.00
1480;BME280;732;51.698;4.886;2023-02-18T06:34:42;102065.81;;;6.95;100.00
1480;BME280;732;51.698;4.886;2023-02-18T06:37:11;102079.97;;;7.00;100.00
1480;BME280;732;51.698;4.886;2023-02-18T06:39:42;102083.53;;;7.02;100.00
1480;BME280;732;51.698;4.886;2023-02-18T06:42:10;102048.34;;;6.94;100.00
1480;BME280;732;51.698;4.886;2023-02-18T06:44:41;102082.72;;;7.05;100.00
1480;BME280;732;51.698;4.886;2023-02-18T06:47:09;102065.72;;;6.92;100.00
1480;BME280;732;51.698;4.886;2023-02-18T06:49:37;102075.97;;;7.10;100.00
1480;BME280;732;51.698;4.886;2023-02-18T06:52:06;102085.16;;;6.99;100.00
1480;BME280;732;51.698;4.886;2023-02-18T06:54:36;102043.28;;;6.75;100.00
1480;BME280;732;51.698;4.886;2023-02-18T06:57:04;102068.84;;;7.06;100.00
1480;BME280;732;51.698;4.886;2023-02-18T06:59:33;102014.31;;;6.69;100.00
1480;BME280;732;51.698;4.886;2023-02-18T07:02:03;102048.97;;;6.87;100.00
1480;BME280;732;51.698;4.886;2023-02-18T07:04:31;102063.66;;;6.84;100.00
1480;BME280;732;51.698;4.886;2023-02-18T07:07:00;102022.66;;;6.59;100.00
1480;BME280;732;51.698;4.886;2023-02-18T07:09:28;102080.47;;;6.90;100.00
1480;BME280;732;51.698;4.886;2023-02-18T07:11:57;102073.19;;;6.82;100.00
1480;BME280;732;51.698;4.886;2023-02-18T07:14:25;102020.47;;;6.47;100.00
1480;BME280;732;51.698;4.886;2023-02-18T07:16:54;102043.88;;;6.44;100.00
1480;BME280;732;51.698;4.886;2023-02-18T07:19:24;102048.09;;;6.63;100.00
1480;BME280;732;51.698;4.886;2023-02-18T07:21:52;102077.72;;;6.64;100.00
1480;BME280;732;51.698;4.886;2023-02-18T07:24:23;102086.63;;;6.69;100.00
1480;BME280;732;51.698;4.886;2023-02-18T07:26:52;102086.69;;;6.70;100.00
1480;BME280;732;51.698;4.886;2023-02-18T07:29:20;102042.75;;;6.38;100.00
1480;BME280;732;51.698;4.886;2023-02-18T07:31:49;102092.97;;;6.75;100.00
1480;BME280;732;51.698;4.886;2023-02-18T07:34:17;102049.66;;;6.59;100.00
1480;BME280;732;51.698;4.886;2023-02-18T07:36:47;102070.28;;;6.74;100.00
1480;BME280;732;51.698;4.886;2023-02-18T07:39:16;102090.25;;;6.72;100.00
1480;BME280;732;51.698;4.886;2023-02-18T07:41:47;102076.28;;;6.72;100.00
1480;BME280;732;51.698;4.886;2023-02-18T07:44:15;102062.25;;;6.70;100.00
1480;BME280;732;51.698;4.886;2023-02-18T07:46:44;102070.28;;;6.74;100.00
1480;BME280;732;51.698;4.886;2023-02-18T07:49:14;102077.94;;;6.70;100.00
1480;BME280;732;51.698;4.886;2023-02-18T07:51:48;102080.50;;;6.92;100.00
1480;BME280;732;51.698;4.886;2023-02-18T07:54:16;102081.63;;;6.98;100.00
1480;BME280;732;51.698;4.886;2023-02-18T07:56:45;102028.94;;;6.64;100.00
1480;BME280;732;51.698;4.886;2023-02-18T07:59:14;102067.22;;;6.86;100.00
1480;BME280;732;51.698;4.886;2023-02-18T08:01:44;102076.44;;;7.00;100.00
1480;BME280;732;51.698;4.886;2023-02-18T08:04:14;102049.94;;;6.89;100.00
1480;BME280;732;51.698;4.886;2023-02-18T08:06:47;102016.53;;;6.82;100.00
1480;BME280;732;51.698;4.886;2023-02-18T08:09:17;102054.31;;;6.90;100.00
1480;BME280;732;51.698;4.886;2023-02-18T08:11:46;102032.63;;;6.93;100.00
1480;BME280;732;51.698;4.886;2023-02-18T08:14:15;102050.38;;;7.03;100.00
1480;BME280;732;51.698;4.886;2023-02-18T08:16:45;102064.63;;;7.11;100.00
1480;BME280;732;51.698;4.886;2023-02-18T08:19:14;101970.38;;;6.59;100.00
1480;BME280;732;51.698;4.886;2023-02-18T08:21:43;102077.78;;;7.12;100.00
1480;BME280;732;51.698;4.886;2023-02-18T08:24:13;102079.66;;;7.16;100.00
1480;BME280;732;51.698;4.886;2023-02-18T08:26:42;102026.72;;;6.98;100.00
1480;BME280;732;51.698;4.886;2023-02-18T08:29:26;102066.16;;;7.29;100.00
1480;BME280;732;51.698;4.886;2023-02-18T08:31:56;102065.50;;;7.10;100.00
1480;BME280;732;51.698;4.886;2023-02-18T08:34:25;102073.13;;;7.04;100.00
1480;BME280;732;51.698;4.886;2023-02-18T08:36:54;101974.25;;;6.46;100.00
1480;BME280;732;51.698;4.886;2023-02-18T08:39:23;102072.06;;;6.99;100.00
1480;BME280;732;51.698;4.886;2023-02-18T08:41:52;102067.72;;;6.99;100.00
1480;BME280;732;51.698;4.886;2023-02-18T08:44:20;102063.88;;;7.13;100.00
1480;BME280;732;51.698;4.886;2023-02-18T08:46:50;102059.19;;;7.05;100.00
1480;BME280;732;51.698;4.886;2023-02-18T08:49:18;102062.94;;;7.11;100.00
1480;BME280;732;51.698;4.886;2023-02-18T08:51:50;102067.00;;;7.03;100.00
1480;BME280;732;51.698;4.886;2023-02-18T08:54:19;102068.56;;;6.98;100.00
1480;BME280;732;51.698;4.886;2023-02-18T08:56:49;102042.56;;;6.79;100.00
1480;BME280;732;51.698;4.886;2023-02-18T08:59:20;102022.22;;;6.71;100.00
1480;BME280;732;51.698;4.886;2023-02-18T09:01:49;102057.88;;;6.92;100.00
1480;BME280;732;51.698;4.886;2023-02-18T09:04:18;102040.72;;;6.77;100.00
1480;BME280;732;51.698;4.886;2023-02-18T09:06:47;102051.69;;;6.90;100.00
1480;BME280;732;51.698;4.886;2023-02-18T09:09:16;102044.34;;;6.80;100.00
1480;BME280;732;51.698;4.886;2023-02-18T09:11:45;102080.72;;;6.98;100.00
1480;BME280;732;51.698;4.886;2023-02-18T09:14:15;102080.41;;;6.89;100.00
1480;BME280;732;51.698;4.886;2023-02-18T09:16:44;102057.50;;;6.82;100.00
1480;BME280;732;51.698;4.886;2023-02-18T09:19:12;102086.97;;;7.01;100.00
1480;BME280;732;51.698;4.886;2023-02-18T09:21:41;102097.56;;;7.04;100.00
1480;BME280;732;51.698;4.886;2023-02-18T09:24:10;102058.53;;;6.87;100.00
1480;BME280;732;51.698;4.886;2023-02-18T09:26:38;102081.97;;;7.07;100.00
1480;BME280;732;51.698;4.886;2023-02-18T09:29:08;102079.63;;;7.15;100.00
1480;BME280;732;51.698;4.886;2023-02-18T09:31:38;102092.28;;;7.28;100.00
1480;BME280;732;51.698;4.886;2023-02-18T09:34:09;102085.97;;;7.21;100.00
1480;BME280;732;51.698;4.886;2023-02-18T09:36:38;102080.94;;;7.27;100.00
1480;BME280;732;51.698;4.886;2023-02-18T09:39:08;102082.69;;;7.27;100.00
1480;BME280;732;51.698;4.886;2023-02-18T09:41:42;102053.41;;;7.13;100.00
1480;BME280;732;51.698;4.886;2023-02-18T09:44:18;102059.59;;;7.15;100.00
1480;BME280;732;51.698;4.886;2023-02-18T09:46:53;102090.03;;;7.38;100.00
1480;BME280;732;51.698;4.886;2023-02-18T09:49:25;102092.81;;;7.43;100.00
1480;BME280;732;51.698;4.886;2023-02-18T09:51:56;102088.09;;;7.33;100.00
1480;BME280;732;51.698;4.886;2023-02-18T09:54:28;102098.06;;;7.43;100.00
1480;BME280;732;51.698;4.886;2023-02-18T09:56:57;102103.03;;;7.35;100.00
1480;BME280;732;51.698;4.886;2023-02-18T09:59:27;102095.19;;;7.35;100.00
1480;BME280;732;51.698;4.886;2023-02-18T10:02:00;102058.97;;;7.22;100.00
1480;BME280;732;51.698;4.886;2023-02-18T10:04:42;102092.75;;;7.40;100.00
1480;BME280;732;51.698;4.886;2023-02-18T10:07:20;102066.81;;;7.22;100.00
1480;BME280;732;51.698;4.886;2023-02-18T10:09:57;102108.63;;;7.46;100.00
1480;BME280;732;51.698;4.886;2023-02-18T10:12:29;102071.44;;;7.31;100.00
1480;BME280;732;51.698;4.886;2023-02-18T10:15:01;102112.09;;;7.45;100.00
1480;BME280;732;51.698;4.886;2023-02-18T10:17:32;102097.13;;;7.41;100.00
1480;BME280;732;51.698;4.886;2023-02-18T10:20:02;102125.47;;;7.52;100.00
1480;BME280;732;51.698;4.886;2023-02-18T10:22:34;102126.53;;;7.59;100.00
1480;BME280;732;51.698;4.886;2023-02-18T10:25:06;102110.53;;;7.50;100.00
1480;BME280;732;51.698;4.886;2023-02-18T10:27:37;102080.09;;;7.53;100.00
1480;BME280;732;51.698;4.886;2023-02-18T10:30:21;102107.22;;;7.55;100.00
1480;BME280;732;51.698;4.886;2023-02-18T10:32:57;102111.72;;;7.60;100.00
1480;BME280;732;51.698;4.886;2023-02-18T10:35:34;102129.59;;;7.70;100.00
1480;BME280;732;51.698;4.886;2023-02-18T10:38:12;102116.88;;;7.82;100.00
1480;BME280;732;51.698;4.886;2023-02-18T10:40:55;102125.41;;;8.01;100.00
1480;BME280;732;51.698;4.886;2023-02-18T10:43:33;102135.63;;;7.94;100.00
1480;BME280;732;51.698;4.886;2023-02-18T10:46:17;102093.72;;;7.94;100.00
1480;BME280;732;51.698;4.886;2023-02-18T10:49:03;102090.25;;;7.95;100.00
1480;BME280;732;51.698;4.886;2023-02-18T10:51:42;102114.94;;;8.28;100.00
1480;BME280;732;51.698;4.886;2023-02-18T10:54:15;102132.28;;;8.24;100.00
1480;BME280;732;51.698;4.886;2023-02-18T10:56:47;102134.25;;;8.31;100.00
1480;BME280;732;51.698;4.886;2023-02-18T10:59:21;102114.69;;;8.20;100.00
1480;BME280;732;51.698;4.886;2023-02-18T11:01:56;102144.22;;;8.41;100.00
1480;BME280;732;51.698;4.886;2023-02-18T11:04:35;102161.53;;;8.38;100.00
1480;BME280;732;51.698;4.886;2023-02-18T11:07:11;102141.03;;;8.25;100.00
1480;BME280;732;51.698;4.886;2023-02-18T11:09:46;102138.53;;;8.28;100.00
1480;BME280;732;51.698;4.886;2023-02-18T11:12:22;102158.59;;;8.27;100.00
1480;BME280;732;51.698;4.886;2023-02-18T11:15:07;102142.25;;;8.08;100.00
1480;BME280;732;51.698;4.886;2023-02-18T11:17:45;102146.34;;;8.26;100.00
1480;BME280;732;51.698;4.886;2023-02-18T11:20:29;102150.06;;;8.34;100.00
1480;BME280;732;51.698;4.886;2023-02-18T11:23:17;102138.84;;;8.12;100.00
1480;BME280;732;51.698;4.886;2023-02-18T11:25:55;102119.06;;;8.21;100.00
1480;BME280;732;51.698;4.886;2023-02-18T11:28:40;102137.09;;;8.37;100.00
1480;BME280;732;51.698;4.886;2023-02-18T11:31:19;102144.28;;;8.44;100.00
1480;BME280;732;51.698;4.886;2023-02-18T11:33:51;102133.53;;;8.64;100.00
1480;BME280;732;51.698;4.886;2023-02-18T11:36:28;102118.03;;;8.71;100.00
1480;BME280;732;51.698;4.886;2023-02-18T11:38:58;102111.66;;;8.63;100.00
1480;BME280;732;51.698;4.886;2023-02-18T11:41:34;102093.09;;;8.57;100.00
1480;BME280;732;51.698;4.886;2023-02-18T11:44:15;102128.53;;;9.01;100.00
1480;BME280;732;51.698;4.886;2023-02-18T11:46:58;102142.63;;;9.34;100.00
1480;BME280;732;51.698;4.886;2023-02-18T11:49:29;102134.69;;;9.32;100.00
1480;BME280;732;51.698;4.886;2023-02-18T11:52:15;102090.56;;;8.88;100.00
1480;BME280;732;51.698;4.886;2023-02-18T11:54:59;102064.75;;;8.74;100.00
1480;BME280;732;51.698;4.886;2023-02-18T11:57:29;102103.66;;;8.88;100.00
1480;BME280;732;51.698;4.886;2023-02-18T11:59:59;102108.31;;;8.98;100.00
1480;BME280;732;51.698;4.886;2023-02-18T12:02:36;102083.69;;;8.93;100.00
1480;BME280;732;51.698;4.886;2023-02-18T12:05:13;102126.38;;;9.16;100.00
1480;BME280;732;51.698;4.886;2023-02-18T12:07:47;102123.97;;;8.95;100.00
1480;BME280;732;51.698;4.886;2023-02-18T12:10:25;102106.41;;;8.93;100.00
1480;BME280;732;51.698;4.886;2023-02-18T12:13:02;102103.00;;;8.95;100.00
1480;BME280;732;51.698;4.886;2023-02-18T12:16:00;102084.13;;;8.77;100.00
1480;BME280;732;51.698;4.886;2023-02-18T12:18:47;102120.59;;;8.99;100.00
1480;BME280;732;51.698;4.886;2023-02-18T12:21:37;102126.75;;;9.00;100.00
1480;BME280;732;51.698;4.886;2023-02-18T12:24:43;102099.28;;;8.89;100.00
1480;BME280;732;51.698;4.886;2023-02-18T12:27:21;102117.63;;;8.87;100.00
1480;BME280;732;51.698;4.886;2023-02-18T12:30:17;102077.06;;;8.76;100.00
1480;BME280;732;51.698;4.886;2023-02-18T12:32:55;102119.13;;;9.07;100.00
1480;BME280;732;51.698;4.886;2023-02-18T12:35:55;102065.53;;;8.70;100.00
1480;BME280;732;51.698;4.886;2023-02-18T12:38:54;102077.59;;;8.65;100.00
1480;BME280;732;51.698;4.886;2023-02-18T12:41:52;102130.22;;;8.99;100.00
1480;BME280;732;51.698;4.886;2023-02-18T12:44:37;102110.38;;;9.07;100.00
1480;BME280;732;51.698;4.886;2023-02-18T12:47:33;102082.97;;;8.99;100.00
1480;BME280;732;51.698;4.886;2023-02-18T12:50:42;102113.72;;;9.34;100.00
1480;BME280;732;51.698;4.886;2023-02-18T12:53:44;102106.91;;;9.09;100.00
1480;BME280;732;51.698;4.886;2023-02-18T12:56:46;102109.91;;;9.21;100.00
1480;BME280;732;51.698;4.886;2023-02-18T12:59:52;102066.66;;;9.07;100.00
1480;BME280;732;51.698;4.886;2023-02-18T13:02:42;102120.56;;;9.27;100.00
1480;BME280;732;51.698;4.886;2023-02-18T13:05:29;102112.28;;;9.45;100.00
1480;BME280;732;51.698;4.886;2023-02-18T13:08:13;102092.47;;;9.56;100.00
1480;BME280;732;51.698;4.886;2023-02-18T13:11:18;102105.69;;;9.59;100.00
1480;BME280;732;51.698;4.886;2023-02-18T13:14:08;102106.06;;;9.41;100.00
1480;BME280;732;51.698;4.886;2023-02-18T13:16:39;102069.63;;;9.21;100.00
1480;BME280;732;51.698;4.886;2023-02-18T13:19:18;102051.00;;;9.12;100.00
1480;BME280;732;51.698;4.886;2023-02-18T13:21:50;102092.88;;;9.38;100.00
1480;BME280;732;51.698;4.886;2023-02-18T13:24:28;102093.09;;;9.48;100.00
1480;BME280;732;51.698;4.886;2023-02-18T13:27:07;102079.66;;;9.70;100.00
1480;BME280;732;51.698;4.886;2023-02-18T13:29:50;102108.81;;;9.79;100.00
1480;BME280;732;51.698;4.886;2023-02-18T13:32:27;102101.72;;;9.75;100.00
1480;BME280;732;51.698;4.886;2023-02-18T13:35:07;102091.59;;;9.57;100.00
1480;BME280;732;51.698;4.886;2023-02-18T13:38:04;102098.72;;;9.61;100.00
1480;BME280;732;51.698;4.886;2023-02-18T13:40:39;102115.72;;;9.75;100.00
1480;BME280;732;51.698;4.886;2023-02-18T13:43:20;102069.75;;;9.58;100.00
1480;BME280;732;51.698;4.886;2023-02-18T13:46:08;102064.66;;;9.66;100.00
1480;BME280;732;51.698;4.886;2023-02-18T13:48:43;102067.78;;;9.50;100.00
1480;BME280;732;51.698;4.886;2023-02-18T13:51:15;102077.47;;;9.52;100.00
1480;BME280;732;51.698;4.886;2023-02-18T13:53:50;102112.16;;;9.73;100.00
1480;BME280;732;51.698;4.886;2023-02-18T13:56:22;102101.38;;;9.63;100.00
1480;BME280;732;51.698;4.886;2023-02-18T13:58:59;102082.75;;;9.54;100.00
1480;BME280;732;51.698;4.886;2023-02-18T14:01:42;102099.56;;;9.60;100.00
1480;BME280;732;51.698;4.886;2023-02-18T14:04:51;102116.84;;;9.85;100.00
1480;BME280;732;51.698;4.886;2023-02-18T14:07:45;102110.59;;;9.80;100.00